Time;durP1;ratioP1;P1;durP2;ratioP2;P2;SDS_P1;SDS_P2;PMS_P1;PMS_P2;Temp;Humidity;BMP_temperature;BMP_pressure;BME280_temperature;BME280_humidity;BME280_pressure;Samples;Min_cycle;Max_cycle;Signal;HPM_P1;HPM_P2
2023/01/12 00:03:01;;;;;;;15.13;9.23;;;;;;;21.25;55.44;100717.38;20928590;28;20094;-81
2023/01/12 00:13:02;;;;;;;17.80;9.32;;;;;;;21.23;55.29;100724.56;20936589;28;20500;-81
2023/01/12 00:23:03;;;;;;;13.65;8.60;;;;;;;21.20;55.52;100723.00;20931281;28;20049;-81
2023/01/12 00:33:03;;;;;;;14.82;9.43;;;;;;;21.17;55.20;100717.94;20926980;28;20037;-81
2023/01/12 00:53:23;;;;;;;15.40;9.52;;;;;;;21.14;54.96;100726.09;20937026;28;20048;-81
2023/01/12 01:03:23;;;;;;;14.25;8.98;;;;;;;21.13;55.07;100745.47;20928571;28;20467;-81
2023/01/12 01:13:23;;;;;;;16.08;9.30;;;;;;;21.08;55.11;100740.53;20929675;28;20049;-81
2023/01/12 01:23:26;;;;;;;16.55;9.73;;;;;;;21.06;55.33;100758.22;20941959;28;20036;-82
2023/01/12 01:33:26;;;;;;;17.53;9.33;;;;;;;21.05;55.17;100767.06;20942795;28;20410;-81
2023/01/12 01:43:46;;;;;;;15.93;9.88;;;;;;;21.02;55.08;100769.91;20941464;28;20119;-80
2023/01/12 01:53:48;;;;;;;14.60;8.95;;;;;;;21.01;55.16;100767.41;20931868;28;20045;-81
2023/01/12 02:03:52;;;;;;;13.57;9.32;;;;;;;20.98;55.22;100771.06;20930232;28;20044;-81
2023/01/12 02:24:35;;;;;;;15.07;9.23;;;;;;;20.95;54.94;100774.75;20930382;28;20044;-81
2023/01/12 02:34:58;;;;;;;12.75;9.02;;;;;;;20.94;55.16;100764.34;20944109;28;20047;-81
2023/01/12 02:45:36;;;;;;;14.55;9.07;;;;;;;20.93;55.01;100758.25;20937764;28;20048;-81
2023/01/12 02:55:40;;;;;;;13.75;9.00;;;;;;;20.90;54.91;100753.19;20780080;28;20060;-81
2023/01/12 03:05:41;;;;;;;13.00;9.25;;;;;;;20.90;55.00;100747.09;20929367;28;20090;-81
2023/01/12 03:15:47;;;;;;;14.38;9.43;;;;;;;20.87;55.17;100736.78;20935719;28;20049;-82
2023/01/12 03:25:51;;;;;;;15.40;9.40;;;;;;;20.87;54.92;100736.78;20932180;28;20521;-80
2023/01/12 03:36:17;;;;;;;13.43;9.13;;;;;;;20.85;54.75;100736.88;20933341;28;20044;-80
2023/01/12 03:46:29;;;;;;;13.65;9.60;;;;;;;20.83;54.98;100735.31;20919564;28;20052;-81
2023/01/12 03:56:33;;;;;;;13.38;9.05;;;;;;;20.82;54.80;100733.63;20909156;28;20057;-82
2023/01/12 04:06:35;;;;;;;15.30;9.40;;;;;;;20.80;54.70;100731.13;20911572;28;20048;-83
2023/01/12 04:16:35;;;;;;;14.43;9.70;;;;;;;20.78;54.85;100730.38;20928317;28;20071;-81
2023/01/12 04:26:35;;;;;;;14.30;8.88;;;;;;;20.77;55.21;100736.56;20948829;28;20078;-81
2023/01/12 04:36:36;;;;;;;14.02;8.48;;;;;;;20.76;54.89;100734.88;20927636;28;20036;-81
2023/01/12 04:46:36;;;;;;;14.48;9.40;;;;;;;20.74;54.79;100732.38;20930258;28;20041;-80
2023/01/12 04:56:38;;;;;;;13.77;9.02;;;;;;;20.73;54.92;100743.00;20919561;27;20455;-81
2023/01/12 05:06:38;;;;;;;14.15;8.88;;;;;;;20.73;54.63;100745.66;20912618;28;20049;-81
2023/01/12 05:16:39;;;;;;;13.13;9.05;;;;;;;20.75;54.97;100749.00;20920882;28;20048;-81
2023/01/12 05:26:39;;;;;;;12.73;8.55;;;;;;;20.79;54.03;100753.94;20913660;28;20072;-81
2023/01/12 05:36:39;;;;;;;14.82;8.18;;;;;;;20.90;55.76;100750.56;20901034;28;20044;-81
2023/01/12 05:46:40;;;;;;;16.17;8.57;;;;;;;21.00;56.23;100760.44;20892594;28;20075;-81
2023/01/12 05:56:42;;;;;;;16.17;7.45;;;;;;;21.09;55.91;100762.41;20915321;28;20044;-84
2023/01/12 06:06:42;;;;;;;15.60;8.13;;;;;;;21.15;55.78;100767.25;20899102;28;21326;-81
2023/01/12 06:16:43;;;;;;;11.45;7.45;;;;;;;21.15;53.72;100763.78;20899461;28;20041;-80
2023/01/12 06:26:43;;;;;;;13.15;7.30;;;;;;;21.16;53.45;100758.41;20902146;28;20399;-79
2023/01/12 06:36:44;;;;;;;10.93;7.10;;;;;;;21.27;54.27;100786.59;20904476;28;20072;-81
2023/01/12 06:46:46;;;;;;;11.05;6.10;;;;;;;21.27;51.93;100805.88;20901158;28;20517;-81
2023/01/12 06:56:46;;;;;;;10.33;5.97;;;;;;;21.38;54.30;100809.53;20902791;28;20144;-81
2023/01/12 07:06:47;;;;;;;11.38;6.43;;;;;;;21.48;54.58;100822.91;20893010;28;20044;-81
2023/01/12 07:16:47;;;;;;;12.73;5.75;;;;;;;21.54;54.29;100833.00;20903312;28;20107;-81
2023/01/12 07:26:52;;;;;;;8.68;5.47;;;;;;;21.58;53.64;100829.19;20900752;28;20439;-81
2023/01/12 07:36:53;;;;;;;9.93;5.80;;;;;;;21.65;54.53;100826.97;20884714;28;20045;-81
2023/01/12 07:46:53;;;;;;;8.25;5.30;;;;;;;21.71;54.44;100842.34;20904112;28;20037;-81
2023/01/12 07:56:54;;;;;;;7.55;4.80;;;;;;;21.73;54.26;100845.72;20904117;28;20127;-80
2023/01/12 08:06:54;;;;;;;6.82;5.10;;;;;;;21.78;54.80;100854.13;20926008;28;20047;-83
2023/01/12 08:17:00;;;;;;;7.50;5.03;;;;;;;21.82;54.57;100860.84;20928856;28;20048;-82
2023/01/12 08:27:05;;;;;;;10.60;6.93;;;;;;;21.81;53.66;100850.44;20928550;28;20048;-85
2023/01/12 08:37:09;;;;;;;10.40;6.00;;;;;;;21.86;54.02;100848.28;20916408;28;20063;-81
2023/01/12 08:47:18;;;;;;;12.45;6.60;;;;;;;21.88;54.22;100849.84;20917259;28;20102;-88
2023/01/12 08:57:19;;;;;;;17.55;6.80;;;;;;;21.91;53.67;100857.56;20920707;28;20115;-80
2023/01/12 09:07:19;;;;;;;11.05;7.20;;;;;;;21.94;53.40;100855.66;20936540;28;20048;-83
2023/01/12 09:17:21;;;;;;;13.85;7.88;;;;;;;21.96;53.58;100856.38;20954192;28;20056;-81
2023/01/12 09:27:23;;;;;;;13.53;7.83;;;;;;;21.96;53.20;100861.63;20960614;28;20135;-80
2023/01/12 09:37:23;;;;;;;13.30;7.88;;;;;;;21.95;52.88;100863.44;20959841;28;20123;-83
2023/01/12 09:47:27;;;;;;;14.38;9.63;;;;;;;21.97;52.64;100853.63;20968839;28;20381;-83
2023/01/12 09:57:42;;;;;;;9.48;7.15;;;;;;;21.97;52.91;100852.78;20960467;28;20048;-83
2023/01/12 10:07:42;;;;;;;12.43;7.55;;;;;;;21.99;52.52;100851.72;20963779;28;20602;-83
2023/01/12 10:17:57;;;;;;;11.30;7.57;;;;;;;22.02;52.55;100835.69;20955690;28;20058;-82
2023/01/12 10:28:04;;;;;;;12.10;8.00;;;;;;;22.01;52.86;100836.63;20943725;28;20739;-83
2023/01/12 10:38:20;;;;;;;11.50;8.00;;;;;;;21.97;52.78;100824.63;20925287;28;20518;-81
2023/01/12 10:48:21;;;;;;;13.23;9.52;;;;;;;21.96;52.41;100816.81;20941920;28;20045;-83
2023/01/12 10:58:30;;;;;;;14.63;9.43;;;;;;;21.95;52.73;100807.22;20947880;28;20123;-84
2023/01/12 11:08:31;;;;;;;14.13;9.25;;;;;;;21.94;52.76;100800.28;20938452;28;20079;-82
2023/01/12 11:18:40;;;;;;;11.27;7.78;;;;;;;21.94;53.05;100792.38;20942216;28;20048;-82
2023/01/12 11:28:46;;;;;;;10.00;7.43;;;;;;;21.95;52.94;100783.50;20943542;28;20045;-82
2023/01/12 11:39:03;;;;;;;10.85;7.13;;;;;;;21.98;53.00;100780.63;20947710;28;20044;-82
2023/01/12 11:49:14;;;;;;;9.70;6.80;;;;;;;22.00;53.08;100784.00;20936332;28;20127;-84
2023/01/12 11:59:49;;;;;;;10.65;6.75;;;;;;;22.04;53.05;100775.72;20965923;28;20356;-85
2023/01/12 12:10:04;;;;;;;10.93;6.85;;;;;;;22.02;52.56;100767.13;20955108;28;20505;-83
2023/01/12 12:20:31;;;;;;;9.68;7.15;;;;;;;22.04;53.03;100767.81;20974836;28;20056;-85
2023/01/12 12:30:44;;;;;;;11.75;7.15;;;;;;;22.03;52.96;100755.63;20950510;28;20048;-83
2023/01/12 12:51:27;;;;;;;9.27;7.03;;;;;;;22.14;52.81;100751.31;20958331;28;20049;-87
2023/01/12 13:01:28;;;;;;;8.48;6.72;;;;;;;22.17;52.38;100746.66;20946167;28;20079;-85
2023/01/12 13:12:07;;;;;;;9.45;6.32;;;;;;;22.20;52.61;100743.78;20945423;28;20143;-86
2023/01/12 13:22:26;;;;;;;8.82;6.05;;;;;;;22.22;51.98;100736.59;20957914;28;20033;-86
2023/01/12 13:32:32;;;;;;;8.48;5.70;;;;;;;22.23;52.25;100742.72;20962481;28;20049;-84
2023/01/12 13:53:00;;;;;;;7.53;5.68;;;;;;;22.20;52.29;100754.34;20949033;28;20575;-83
2023/01/12 14:03:03;;;;;;;7.50;5.38;;;;;;;22.20;52.51;100750.84;20940754;28;20590;-86
2023/01/12 14:13:22;;;;;;;16.27;4.90;;;;;;;22.20;52.22;100748.22;20953101;28;20049;-83
2023/01/12 14:23:28;;;;;;;6.38;4.90;;;;;;;22.20;52.36;100741.16;20908854;28;20079;-79
2023/01/12 14:33:32;;;;;;;6.90;5.20;;;;;;;22.22;52.04;100733.94;20929674;28;20437;-83
2023/01/12 14:54:15;;;;;;;6.60;4.78;;;;;;;22.15;51.59;100714.28;20950137;28;20514;-83
2023/01/12 15:04:19;;;;;;;7.50;4.72;;;;;;;22.11;51.20;100715.47;20937066;28;20041;-79
2023/01/12 15:14:23;;;;;;;6.45;4.72;;;;;;;22.02;51.70;100719.66;20931861;28;20591;-80
2023/01/12 15:34:49;;;;;;;10.90;4.97;;;;;;;21.93;50.76;100720.34;20910295;28;20502;-84
2023/01/12 15:44:52;;;;;;;6.65;4.45;;;;;;;21.91;51.84;100735.44;20916650;28;20457;-82
2023/01/12 15:54:53;;;;;;;13.77;4.38;;;;;;;21.90;51.78;100739.03;20908371;28;20126;-81
2023/01/12 16:04:53;;;;;;;8.65;4.22;;;;;;;21.88;52.54;100735.66;20921845;28;20040;-81
2023/01/12 16:14:56;;;;;;;7.72;3.90;;;;;;;21.89;52.64;100743.44;20932468;28;20467;-81
2023/01/12 16:24:57;;;;;;;6.38;4.00;;;;;;;21.88;52.86;100752.31;20939220;28;20124;-81
2023/01/12 16:34:58;;;;;;;7.30;3.75;;;;;;;21.85;52.70;100743.78;20952579;28;20100;-82
2023/01/12 16:44:58;;;;;;;6.80;3.88;;;;;;;21.82;52.64;100757.22;20957937;28;20507;-82
2023/01/12 16:54:59;;;;;;;8.38;4.13;;;;;;;21.77;52.87;100754.91;20952217;28;20384;-81
2023/01/12 17:05:00;;;;;;;6.75;4.10;;;;;;;21.77;52.86;100754.09;20954567;28;20055;-83
2023/01/12 17:15:01;;;;;;;4.50;3.08;;;;;;;;;;20998328;28;20067;-87
2023/01/12 17:25:03;;;;;;;5.85;3.83;;;;;;;21.74;53.24;100761.25;20964233;28;20079;-90
2023/01/12 17:35:08;;;;;;;8.57;3.70;;;;;;;21.71;53.16;100753.56;20972182;28;20188;-89
2023/01/12 17:45:08;;;;;;;11.27;3.85;;;;;;;21.73;53.36;100756.09;20946010;28;20132;-83
2023/01/12 17:55:09;;;;;;;6.25;4.00;;;;;;;21.68;53.50;100760.84;20914729;28;20525;-78
2023/01/12 18:05:09;;;;;;;5.00;3.78;;;;;;;21.65;53.53;100756.66;20904366;28;20056;-80
2023/01/12 18:15:10;;;;;;;5.68;4.15;;;;;;;21.68;53.11;100760.84;20901133;28;20063;-81
2023/01/12 18:25:11;;;;;;;5.03;3.63;;;;;;;21.67;53.07;100767.09;20907673;28;20039;-77
2023/01/12 18:35:16;;;;;;;7.75;4.05;;;;;;;21.67;53.61;100757.41;20917642;28;20064;-80
2023/01/12 18:45:17;;;;;;;8.85;4.30;;;;;;;21.67;53.29;100756.56;20919695;28;20048;-82
2023/01/12 18:55:18;;;;;;;7.60;4.30;;;;;;;21.67;53.29;100760.03;20924024;28;20075;-85
2023/01/12 19:05:22;;;;;;;6.25;5.10;;;;;;;21.65;53.40;100751.38;20935524;28;20086;-83
2023/01/12 19:36:14;;;;;;;11.23;5.43;;;;;;;21.57;53.17;100730.06;20939124;28;20044;-80
2023/01/12 19:46:14;;;;;;;12.02;5.45;;;;;;;21.58;53.03;100708.84;20946387;28;20060;-79
2023/01/12 19:56:15;;;;;;;8.67;4.80;;;;;;;21.58;53.17;100700.09;20927705;28;20041;-80
2023/01/12 20:06:16;;;;;;;16.90;8.23;;;;;;;21.48;53.07;100697.25;20937546;28;20866;-82
2023/01/12 20:16:17;;;;;;;12.20;6.90;;;;;;;21.44;52.96;100709.00;20966828;28;20045;-82
2023/01/12 20:26:18;;;;;;;15.57;7.93;;;;;;;21.39;53.18;100719.03;20947184;28;20143;-83
2023/01/12 20:36:18;;;;;;;11.73;7.22;;;;;;;21.38;52.97;100725.25;20971218;28;20044;-83
2023/01/12 20:46:19;;;;;;;15.32;7.63;;;;;;;21.35;53.17;100736.00;20959779;28;20197;-83
2023/01/12 20:56:20;;;;;;;15.20;7.93;;;;;;;21.34;52.99;100744.88;20961555;28;20536;-82
2023/01/12 21:06:22;;;;;;;13.40;7.70;;;;;;;21.33;53.23;100735.28;20968164;28;20123;-83
2023/01/12 21:16:22;;;;;;;12.57;7.63;;;;;;;21.31;53.37;100742.44;20955778;28;20393;-83
2023/01/12 21:26:24;;;;;;;13.93;8.48;;;;;;;21.30;53.42;100741.63;20946290;28;20045;-83
2023/01/12 21:36:24;;;;;;;12.23;7.60;;;;;;;21.29;53.58;100729.41;20934798;28;20049;-83
2023/01/12 21:46:25;;;;;;;15.55;8.13;;;;;;;21.36;53.78;100725.38;20943921;28;20102;-83
2023/01/12 21:56:26;;;;;;;10.63;6.38;;;;;;;21.33;53.63;100722.94;20922609;28;20685;-82
2023/01/12 22:06:26;;;;;;;9.88;7.05;;;;;;;21.34;53.89;100716.72;20932063;28;20082;-82
2023/01/12 22:16:27;;;;;;;9.65;7.05;;;;;;;21.35;53.92;100717.56;20958664;28;20619;-83
2023/01/12 22:26:29;;;;;;;11.07;7.25;;;;;;;21.34;53.58;100706.19;20946910;28;20052;-82
2023/01/12 22:36:32;;;;;;;11.43;7.15;;;;;;;21.33;53.48;100699.22;20936473;28;20063;-82
2023/01/12 22:46:33;;;;;;;11.82;6.97;;;;;;;21.31;53.75;100689.78;20924455;28;20151;-82
2023/01/12 22:56:35;;;;;;;11.38;7.25;;;;;;;21.30;53.69;100693.34;20912762;28;20052;-82
2023/01/12 23:06:37;;;;;;;10.15;6.72;;;;;;;21.27;53.88;100689.97;20932197;28;20041;-82
2023/01/12 23:16:37;;;;;;;12.30;6.57;;;;;;;21.27;53.82;100684.72;20913621;28;20396;-81
2023/01/12 23:26:38;;;;;;;10.98;6.90;;;;;;;21.26;53.71;100700.63;20924721;28;20043;-81
2023/01/12 23:36:39;;;;;;;11.95;6.50;;;;;;;21.24;53.84;100703.38;20925090;28;20119;-82
2023/01/12 23:46:41;;;;;;;9.30;6.18;;;;;;;21.22;53.92;100702.66;20922222;28;20053;-82
2023/01/12 23:56:42;;;;;;;;;;;;;;;21.20;53.94;100699.31;20919332;28;20082;-82
